sensor_id;sensor_type;location;lat;lon;timestamp;P1;durP1;ratioP1;P2;durP2;ratioP2
10985;SDS011;5546;48.714;8.738;2023-08-06T00:02:12;4.23;;;3.73;;
10985;SDS011;5546;48.714;8.738;2023-08-06T00:04:37;4.97;;;3.43;;
10985;SDS011;5546;48.714;8.738;2023-08-06T00:07:03;4.80;;;3.83;;
10985;SDS011;5546;48.714;8.738;2023-08-06T00:09:29;4.07;;;3.60;;
10985;SDS011;5546;48.714;8.738;2023-08-06T00:11:54;3.83;;;3.43;;
10985;SDS011;5546;48.714;8.738;2023-08-06T00:14:20;4.53;;;3.50;;
10985;SDS011;5546;48.714;8.738;2023-08-06T00:16:45;5.07;;;3.40;;
10985;SDS011;5546;48.714;8.738;2023-08-06T00:19:11;3.87;;;3.47;;
10985;SDS011;5546;48.714;8.738;2023-08-06T00:21:37;4.10;;;3.37;;
10985;SDS011;5546;48.714;8.738;2023-08-06T00:24:02;4.47;;;4.07;;
10985;SDS011;5546;48.714;8.738;2023-08-06T00:26:28;4.53;;;4.13;;
10985;SDS011;5546;48.714;8.738;2023-08-06T00:28:53;6.73;;;4.40;;
10985;SDS011;5546;48.714;8.738;2023-08-06T00:31:19;5.50;;;4.50;;
10985;SDS011;5546;48.714;8.738;2023-08-06T00:33:44;4.90;;;4.40;;
10985;SDS011;5546;48.714;8.738;2023-08-06T00:36:10;4.83;;;4.00;;
10985;SDS011;5546;48.714;8.738;2023-08-06T00:38:35;4.27;;;3.93;;
10985;SDS011;5546;48.714;8.738;2023-08-06T00:41:01;6.17;;;4.27;;
10985;SDS011;5546;48.714;8.738;2023-08-06T00:43:26;6.00;;;4.10;;
10985;SDS011;5546;48.714;8.738;2023-08-06T00:45:52;4.93;;;4.27;;
10985;SDS011;5546;48.714;8.738;2023-08-06T00:48:17;4.27;;;3.70;;
10985;SDS011;5546;48.714;8.738;2023-08-06T00:50:44;5.80;;;3.93;;
10985;SDS011;5546;48.714;8.738;2023-08-06T00:53:09;4.70;;;3.57;;
10985;SDS011;5546;48.714;8.738;2023-08-06T00:55:35;4.53;;;4.13;;
10985;SDS011;5546;48.714;8.738;2023-08-06T00:58:01;4.90;;;4.40;;
10985;SDS011;5546;48.714;8.738;2023-08-06T01:00:26;14.20;;;5.47;;
10985;SDS011;5546;48.714;8.738;2023-08-06T01:02:53;5.40;;;4.90;;
10985;SDS011;5546;48.714;8.738;2023-08-06T01:05:19;5.93;;;4.03;;
10985;SDS011;5546;48.714;8.738;2023-08-06T01:16:03;3.63;;;3.17;;
10985;SDS011;5546;48.714;8.738;2023-08-06T01:18:30;7.20;;;2.93;;
10985;SDS011;5546;48.714;8.738;2023-08-06T01:20:56;3.40;;;3.10;;
10985;SDS011;5546;48.714;8.738;2023-08-06T01:23:22;5.07;;;3.53;;
10985;SDS011;5546;48.714;8.738;2023-08-06T01:25:52;5.17;;;3.33;;
10985;SDS011;5546;48.714;8.738;2023-08-06T01:31:18;4.40;;;3.77;;
10985;SDS011;5546;48.714;8.738;2023-08-06T01:33:55;16.33;;;4.67;;
10985;SDS011;5546;48.714;8.738;2023-08-06T01:36:23;11.13;;;5.77;;
10985;SDS011;5546;48.714;8.738;2023-08-06T01:38:51;5.07;;;4.57;;
10985;SDS011;5546;48.714;8.738;2023-08-06T01:41:18;5.30;;;4.20;;
10985;SDS011;5546;48.714;8.738;2023-08-06T01:43:43;4.83;;;3.47;;
10985;SDS011;5546;48.714;8.738;2023-08-06T01:46:09;4.63;;;3.40;;
10985;SDS011;5546;48.714;8.738;2023-08-06T01:48:34;3.87;;;3.57;;
10985;SDS011;5546;48.714;8.738;2023-08-06T01:51:00;4.77;;;3.60;;
10985;SDS011;5546;48.714;8.738;2023-08-06T01:53:25;4.77;;;3.67;;
10985;SDS011;5546;48.714;8.738;2023-08-06T01:55:51;3.97;;;3.57;;
10985;SDS011;5546;48.714;8.738;2023-08-06T01:58:16;4.00;;;3.60;;
10985;SDS011;5546;48.714;8.738;2023-08-06T02:00:42;4.20;;;3.70;;
10985;SDS011;5546;48.714;8.738;2023-08-06T02:03:07;4.13;;;3.73;;
10985;SDS011;5546;48.714;8.738;2023-08-06T02:05:33;3.70;;;3.40;;
10985;SDS011;5546;48.714;8.738;2023-08-06T02:07:58;8.20;;;3.67;;
10985;SDS011;5546;48.714;8.738;2023-08-06T02:10:24;4.90;;;3.20;;
10985;SDS011;5546;48.714;8.738;2023-08-06T02:12:49;3.20;;;2.90;;
10985;SDS011;5546;48.714;8.738;2023-08-06T02:15:15;3.63;;;3.33;;
10985;SDS011;5546;48.714;8.738;2023-08-06T02:17:41;5.10;;;3.23;;
10985;SDS011;5546;48.714;8.738;2023-08-06T02:20:06;4.17;;;2.87;;
10985;SDS011;5546;48.714;8.738;2023-08-06T02:22:32;3.83;;;2.60;;
10985;SDS011;5546;48.714;8.738;2023-08-06T02:24:58;3.77;;;3.20;;
10985;SDS011;5546;48.714;8.738;2023-08-06T02:27:24;3.20;;;2.90;;
10985;SDS011;5546;48.714;8.738;2023-08-06T02:29:49;3.60;;;2.93;;
10985;SDS011;5546;48.714;8.738;2023-08-06T02:32:15;3.37;;;3.00;;
10985;SDS011;5546;48.714;8.738;2023-08-06T02:34:40;5.50;;;2.87;;
10985;SDS011;5546;48.714;8.738;2023-08-06T02:37:06;3.33;;;2.93;;
10985;SDS011;5546;48.714;8.738;2023-08-06T02:39:31;6.37;;;3.13;;
10985;SDS011;5546;48.714;8.738;2023-08-06T02:41:58;4.43;;;3.00;;
10985;SDS011;5546;48.714;8.738;2023-08-06T02:44:26;3.57;;;3.20;;
10985;SDS011;5546;48.714;8.738;2023-08-06T02:46:52;3.57;;;3.27;;
10985;SDS011;5546;48.714;8.738;2023-08-06T02:49:18;3.60;;;3.30;;
10985;SDS011;5546;48.714;8.738;2023-08-06T02:51:44;5.00;;;3.07;;
10985;SDS011;5546;48.714;8.738;2023-08-06T02:54:10;3.33;;;3.03;;
10985;SDS011;5546;48.714;8.738;2023-08-06T02:56:36;5.23;;;3.10;;
10985;SDS011;5546;48.714;8.738;2023-08-06T02:59:01;3.93;;;3.20;;
10985;SDS011;5546;48.714;8.738;2023-08-06T03:01:27;3.87;;;3.00;;
10985;SDS011;5546;48.714;8.738;2023-08-06T03:03:53;4.47;;;3.07;;
10985;SDS011;5546;48.714;8.738;2023-08-06T03:06:19;3.87;;;2.73;;
10985;SDS011;5546;48.714;8.738;2023-08-06T03:08:44;3.47;;;2.80;;
10985;SDS011;5546;48.714;8.738;2023-08-06T03:11:10;3.20;;;2.90;;
10985;SDS011;5546;48.714;8.738;2023-08-06T03:13:35;3.63;;;3.20;;
10985;SDS011;5546;48.714;8.738;2023-08-06T03:16:01;3.83;;;3.53;;
10985;SDS011;5546;48.714;8.738;2023-08-06T03:18:26;5.17;;;3.40;;
10985;SDS011;5546;48.714;8.738;2023-08-06T03:20:52;3.47;;;3.17;;
10985;SDS011;5546;48.714;8.738;2023-08-06T03:23:18;4.10;;;3.43;;
10985;SDS011;5546;48.714;8.738;2023-08-06T03:25:44;5.23;;;3.20;;
10985;SDS011;5546;48.714;8.738;2023-08-06T03:28:10;4.90;;;3.33;;
10985;SDS011;5546;48.714;8.738;2023-08-06T03:30:35;6.37;;;3.27;;
10985;SDS011;5546;48.714;8.738;2023-08-06T03:33:01;7.30;;;3.93;;
10985;SDS011;5546;48.714;8.738;2023-08-06T03:35:26;4.97;;;3.20;;
10985;SDS011;5546;48.714;8.738;2023-08-06T03:37:52;3.73;;;3.40;;
10985;SDS011;5546;48.714;8.738;2023-08-06T03:40:18;4.10;;;3.17;;
10985;SDS011;5546;48.714;8.738;2023-08-06T03:42:43;3.67;;;3.23;;
10985;SDS011;5546;48.714;8.738;2023-08-06T03:45:09;4.17;;;3.77;;
10985;SDS011;5546;48.714;8.738;2023-08-06T03:47:35;4.10;;;3.30;;
10985;SDS011;5546;48.714;8.738;2023-08-06T03:50:00;5.20;;;3.60;;
10985;SDS011;5546;48.714;8.738;2023-08-06T03:52:26;4.30;;;3.17;;
10985;SDS011;5546;48.714;8.738;2023-08-06T03:54:51;5.87;;;3.63;;
10985;SDS011;5546;48.714;8.738;2023-08-06T03:57:17;3.83;;;3.43;;
10985;SDS011;5546;48.714;8.738;2023-08-06T03:59:42;6.37;;;3.90;;
10985;SDS011;5546;48.714;8.738;2023-08-06T04:02:08;6.00;;;3.57;;
10985;SDS011;5546;48.714;8.738;2023-08-06T04:04:33;5.77;;;3.20;;
10985;SDS011;5546;48.714;8.738;2023-08-06T04:06:59;5.40;;;3.70;;
10985;SDS011;5546;48.714;8.738;2023-08-06T04:09:24;4.03;;;3.57;;
10985;SDS011;5546;48.714;8.738;2023-08-06T04:11:50;5.53;;;3.50;;
10985;SDS011;5546;48.714;8.738;2023-08-06T04:14:15;4.57;;;3.33;;
10985;SDS011;5546;48.714;8.738;2023-08-06T04:16:41;3.70;;;3.10;;
10985;SDS011;5546;48.714;8.738;2023-08-06T04:19:06;4.50;;;2.83;;
10985;SDS011;5546;48.714;8.738;2023-08-06T04:21:32;4.20;;;3.40;;
10985;SDS011;5546;48.714;8.738;2023-08-06T04:23:57;6.60;;;3.50;;
10985;SDS011;5546;48.714;8.738;2023-08-06T04:26:23;4.67;;;3.53;;
10985;SDS011;5546;48.714;8.738;2023-08-06T04:28:48;4.40;;;3.47;;
10985;SDS011;5546;48.714;8.738;2023-08-06T04:31:14;4.33;;;3.70;;
10985;SDS011;5546;48.714;8.738;2023-08-06T04:33:40;7.87;;;3.83;;
10985;SDS011;5546;48.714;8.738;2023-08-06T04:36:06;4.40;;;3.80;;
10985;SDS011;5546;48.714;8.738;2023-08-06T04:38:31;5.50;;;3.47;;
10985;SDS011;5546;48.714;8.738;2023-08-06T04:40:57;4.37;;;3.03;;
10985;SDS011;5546;48.714;8.738;2023-08-06T04:43:23;5.67;;;3.20;;
10985;SDS011;5546;48.714;8.738;2023-08-06T04:45:49;4.07;;;3.17;;
10985;SDS011;5546;48.714;8.738;2023-08-06T04:48:16;5.83;;;3.43;;
10985;SDS011;5546;48.714;8.738;2023-08-06T04:50:45;5.03;;;3.33;;
10985;SDS011;5546;48.714;8.738;2023-08-06T04:53:11;4.83;;;3.40;;
10985;SDS011;5546;48.714;8.738;2023-08-06T04:55:36;2.83;;;1.90;;
10985;SDS011;5546;48.714;8.738;2023-08-06T04:58:02;7.33;;;3.10;;
10985;SDS011;5546;48.714;8.738;2023-08-06T05:00:28;3.83;;;2.20;;
10985;SDS011;5546;48.714;8.738;2023-08-06T05:02:54;2.67;;;2.13;;
10985;SDS011;5546;48.714;8.738;2023-08-06T05:05:19;2.80;;;2.60;;
10985;SDS011;5546;48.714;8.738;2023-08-06T05:07:45;4.07;;;2.70;;
10985;SDS011;5546;48.714;8.738;2023-08-06T05:10:13;4.93;;;2.90;;
10985;SDS011;5546;48.714;8.738;2023-08-06T05:12:39;4.70;;;3.33;;
10985;SDS011;5546;48.714;8.738;2023-08-06T05:15:04;4.97;;;3.00;;
10985;SDS011;5546;48.714;8.738;2023-08-06T05:17:30;3.73;;;2.80;;
10985;SDS011;5546;48.714;8.738;2023-08-06T05:19:55;3.73;;;2.60;;
10985;SDS011;5546;48.714;8.738;2023-08-06T05:22:21;4.00;;;2.90;;
10985;SDS011;5546;48.714;8.738;2023-08-06T05:24:46;3.70;;;2.60;;
10985;SDS011;5546;48.714;8.738;2023-08-06T05:27:12;3.20;;;2.90;;
10985;SDS011;5546;48.714;8.738;2023-08-06T05:29:38;3.80;;;2.67;;
10985;SDS011;5546;48.714;8.738;2023-08-06T05:32:03;4.97;;;2.77;;
10985;SDS011;5546;48.714;8.738;2023-08-06T05:34:29;4.60;;;2.53;;
10985;SDS011;5546;48.714;8.738;2023-08-06T05:36:54;2.70;;;2.47;;
10985;SDS011;5546;48.714;8.738;2023-08-06T05:39:20;4.10;;;2.40;;
10985;SDS011;5546;48.714;8.738;2023-08-06T05:41:46;2.57;;;2.07;;
10985;SDS011;5546;48.714;8.738;2023-08-06T05:44:11;3.67;;;1.80;;
10985;SDS011;5546;48.714;8.738;2023-08-06T05:46:37;4.07;;;1.90;;
10985;SDS011;5546;48.714;8.738;2023-08-06T05:49:02;2.40;;;1.60;;
10985;SDS011;5546;48.714;8.738;2023-08-06T05:51:28;2.60;;;1.67;;
10985;SDS011;5546;48.714;8.738;2023-08-06T05:53:54;3.80;;;1.40;;
10985;SDS011;5546;48.714;8.738;2023-08-06T05:56:19;1.77;;;1.40;;
10985;SDS011;5546;48.714;8.738;2023-08-06T05:58:45;2.13;;;1.40;;
10985;SDS011;5546;48.714;8.738;2023-08-06T06:01:12;2.83;;;1.30;;
10985;SDS011;5546;48.714;8.738;2023-08-06T06:03:38;1.83;;;1.13;;
10985;SDS011;5546;48.714;8.738;2023-08-06T06:06:03;1.60;;;1.30;;
10985;SDS011;5546;48.714;8.738;2023-08-06T06:08:29;2.23;;;1.10;;
10985;SDS011;5546;48.714;8.738;2023-08-06T06:10:54;2.27;;;1.30;;
10985;SDS011;5546;48.714;8.738;2023-08-06T06:13:20;4.23;;;1.47;;
10985;SDS011;5546;48.714;8.738;2023-08-06T06:15:49;4.27;;;1.10;;
10985;SDS011;5546;48.714;8.738;2023-08-06T06:18:14;2.50;;;1.10;;
10985;SDS011;5546;48.714;8.738;2023-08-06T06:20:40;1.77;;;1.00;;
10985;SDS011;5546;48.714;8.738;2023-08-06T06:23:05;2.20;;;1.10;;
10985;SDS011;5546;48.714;8.738;2023-08-06T06:25:31;1.27;;;0.90;;
10985;SDS011;5546;48.714;8.738;2023-08-06T06:27:56;2.97;;;1.30;;
10985;SDS011;5546;48.714;8.738;2023-08-06T06:30:23;1.37;;;1.03;;
10985;SDS011;5546;48.714;8.738;2023-08-06T06:32:49;2.30;;;1.03;;
10985;SDS011;5546;48.714;8.738;2023-08-06T06:35:14;3.87;;;0.90;;
10985;SDS011;5546;48.714;8.738;2023-08-06T06:37:40;1.93;;;1.10;;
10985;SDS011;5546;48.714;8.738;2023-08-06T06:40:05;1.30;;;1.20;;
10985;SDS011;5546;48.714;8.738;2023-08-06T06:42:31;1.67;;;0.97;;
10985;SDS011;5546;48.714;8.738;2023-08-06T06:44:57;0.60;;;0.60;;
10985;SDS011;5546;48.714;8.738;2023-08-06T06:47:22;1.53;;;1.00;;
10985;SDS011;5546;48.714;8.738;2023-08-06T06:49:48;3.13;;;0.97;;
10985;SDS011;5546;48.714;8.738;2023-08-06T06:52:14;1.63;;;0.73;;
10985;SDS011;5546;48.714;8.738;2023-08-06T06:54:39;2.70;;;0.70;;
10985;SDS011;5546;48.714;8.738;2023-08-06T06:57:05;2.10;;;0.80;;
10985;SDS011;5546;48.714;8.738;2023-08-06T06:59:31;1.43;;;0.60;;
10985;SDS011;5546;48.714;8.738;2023-08-06T07:01:56;0.87;;;0.77;;
10985;SDS011;5546;48.714;8.738;2023-08-06T07:04:22;1.83;;;0.60;;
10985;SDS011;5546;48.714;8.738;2023-08-06T07:06:47;3.30;;;0.60;;
10985;SDS011;5546;48.714;8.738;2023-08-06T07:09:13;2.27;;;0.60;;
10985;SDS011;5546;48.714;8.738;2023-08-06T07:11:38;0.73;;;0.70;;
10985;SDS011;5546;48.714;8.738;2023-08-06T07:14:04;1.57;;;0.57;;
10985;SDS011;5546;48.714;8.738;2023-08-06T07:16:29;0.60;;;0.57;;
10985;SDS011;5546;48.714;8.738;2023-08-06T07:18:55;1.00;;;0.70;;
10985;SDS011;5546;48.714;8.738;2023-08-06T07:21:20;0.87;;;0.60;;
10985;SDS011;5546;48.714;8.738;2023-08-06T07:23:46;0.63;;;0.57;;
10985;SDS011;5546;48.714;8.738;2023-08-06T07:26:14;0.80;;;0.60;;
10985;SDS011;5546;48.714;8.738;2023-08-06T07:28:39;0.80;;;0.50;;
10985;SDS011;5546;48.714;8.738;2023-08-06T07:31:05;1.73;;;0.40;;
10985;SDS011;5546;48.714;8.738;2023-08-06T07:33:30;0.93;;;0.70;;
10985;SDS011;5546;48.714;8.738;2023-08-06T07:35:56;0.53;;;0.50;;
10985;SDS011;5546;48.714;8.738;2023-08-06T07:38:21;0.73;;;0.60;;
10985;SDS011;5546;48.714;8.738;2023-08-06T07:40:47;2.10;;;0.40;;
10985;SDS011;5546;48.714;8.738;2023-08-06T07:43:12;0.50;;;0.50;;
10985;SDS011;5546;48.714;8.738;2023-08-06T07:45:38;1.80;;;0.60;;
10985;SDS011;5546;48.714;8.738;2023-08-06T07:48:04;0.53;;;0.50;;
10985;SDS011;5546;48.714;8.738;2023-08-06T07:50:29;0.70;;;0.50;;
10985;SDS011;5546;48.714;8.738;2023-08-06T07:52:55;0.97;;;0.50;;
10985;SDS011;5546;48.714;8.738;2023-08-06T07:55:21;0.57;;;0.40;;
10985;SDS011;5546;48.714;8.738;2023-08-06T07:57:46;0.40;;;0.40;;
10985;SDS011;5546;48.714;8.738;2023-08-06T08:00:12;0.60;;;0.50;;
10985;SDS011;5546;48.714;8.738;2023-08-06T08:02:37;0.20;;;0.20;;
10985;SDS011;5546;48.714;8.738;2023-08-06T08:05:03;0.73;;;0.70;;
10985;SDS011;5546;48.714;8.738;2023-08-06T08:07:29;0.83;;;0.60;;
10985;SDS011;5546;48.714;8.738;2023-08-06T08:09:55;0.60;;;0.50;;
10985;SDS011;5546;48.714;8.738;2023-08-06T08:12:21;0.33;;;0.33;;
10985;SDS011;5546;48.714;8.738;2023-08-06T08:14:47;0.40;;;0.40;;
10985;SDS011;5546;48.714;8.738;2023-08-06T08:17:12;0.50;;;0.43;;
10985;SDS011;5546;48.714;8.738;2023-08-06T08:19:39;0.53;;;0.33;;
10985;SDS011;5546;48.714;8.738;2023-08-06T08:22:05;1.37;;;1.10;;
10985;SDS011;5546;48.714;8.738;2023-08-06T08:24:31;0.30;;;0.30;;
10985;SDS011;5546;48.714;8.738;2023-08-06T08:26:57;0.47;;;0.47;;
10985;SDS011;5546;48.714;8.738;2023-08-06T08:29:22;0.47;;;0.30;;
10985;SDS011;5546;48.714;8.738;2023-08-06T08:31:48;0.30;;;0.20;;
10985;SDS011;5546;48.714;8.738;2023-08-06T08:34:18;0.20;;;0.20;;
10985;SDS011;5546;48.714;8.738;2023-08-06T08:36:43;0.90;;;0.30;;
10985;SDS011;5546;48.714;8.738;2023-08-06T08:39:12;0.60;;;0.40;;
10985;SDS011;5546;48.714;8.738;2023-08-06T08:41:38;0.53;;;0.50;;
10985;SDS011;5546;48.714;8.738;2023-08-06T08:44:05;0.50;;;0.37;;
10985;SDS011;5546;48.714;8.738;2023-08-06T08:46:38;0.90;;;0.57;;
10985;SDS011;5546;48.714;8.738;2023-08-06T08:49:05;1.07;;;0.50;;
10985;SDS011;5546;48.714;8.738;2023-08-06T08:51:31;0.93;;;0.40;;
10985;SDS011;5546;48.714;8.738;2023-08-06T08:53:58;0.53;;;0.30;;
10985;SDS011;5546;48.714;8.738;2023-08-06T08:56:24;1.10;;;0.40;;
10985;SDS011;5546;48.714;8.738;2023-08-06T08:58:50;0.37;;;0.37;;
10985;SDS011;5546;48.714;8.738;2023-08-06T09:01:24;0.80;;;0.57;;
10985;SDS011;5546;48.714;8.738;2023-08-06T09:03:51;0.53;;;0.40;;
10985;SDS011;5546;48.714;8.738;2023-08-06T09:06:18;0.63;;;0.63;;
10985;SDS011;5546;48.714;8.738;2023-08-06T09:08:56;0.40;;;0.40;;
10985;SDS011;5546;48.714;8.738;2023-08-06T09:11:34;0.50;;;0.50;;
10985;SDS011;5546;48.714;8.738;2023-08-06T09:14:06;1.60;;;0.40;;
10985;SDS011;5546;48.714;8.738;2023-08-06T09:16:34;1.77;;;0.67;;
10985;SDS011;5546;48.714;8.738;2023-08-06T09:19:07;0.53;;;0.40;;
10985;SDS011;5546;48.714;8.738;2023-08-06T09:21:38;0.30;;;0.30;;
10985;SDS011;5546;48.714;8.738;2023-08-06T09:24:10;0.60;;;0.60;;
10985;SDS011;5546;48.714;8.738;2023-08-06T09:26:37;0.50;;;0.50;;
10985;SDS011;5546;48.714;8.738;2023-08-06T09:29:05;0.60;;;0.40;;
10985;SDS011;5546;48.714;8.738;2023-08-06T09:31:42;0.23;;;0.23;;
10985;SDS011;5546;48.714;8.738;2023-08-06T09:34:15;0.40;;;0.40;;
10985;SDS011;5546;48.714;8.738;2023-08-06T09:36:42;0.67;;;0.57;;
10985;SDS011;5546;48.714;8.738;2023-08-06T09:39:17;0.43;;;0.37;;
10985;SDS011;5546;48.714;8.738;2023-08-06T09:41:44;1.53;;;0.40;;
10985;SDS011;5546;48.714;8.738;2023-08-06T09:44:15;0.50;;;0.50;;
10985;SDS011;5546;48.714;8.738;2023-08-06T09:46:41;0.37;;;0.30;;
10985;SDS011;5546;48.714;8.738;2023-08-06T09:49:07;0.40;;;0.40;;
10985;SDS011;5546;48.714;8.738;2023-08-06T09:51:34;0.60;;;0.47;;
10985;SDS011;5546;48.714;8.738;2023-08-06T09:54:02;1.33;;;0.47;;
10985;SDS011;5546;48.714;8.738;2023-08-06T09:56:29;0.57;;;0.40;;
10985;SDS011;5546;48.714;8.738;2023-08-06T09:58:58;0.50;;;0.50;;
10985;SDS011;5546;48.714;8.738;2023-08-06T10:01:24;1.33;;;0.50;;
10985;SDS011;5546;48.714;8.738;2023-08-06T10:03:50;2.40;;;0.80;;
10985;SDS011;5546;48.714;8.738;2023-08-06T10:06:18;0.73;;;0.47;;
10985;SDS011;5546;48.714;8.738;2023-08-06T10:08:46;0.40;;;0.40;;
10985;SDS011;5546;48.714;8.738;2023-08-06T10:11:12;1.97;;;0.40;;
10985;SDS011;5546;48.714;8.738;2023-08-06T10:13:39;0.60;;;0.40;;
10985;SDS011;5546;48.714;8.738;2023-08-06T10:16:05;0.60;;;0.53;;
10985;SDS011;5546;48.714;8.738;2023-08-06T10:18:31;0.53;;;0.40;;
10985;SDS011;5546;48.714;8.738;2023-08-06T10:20:57;0.63;;;0.47;;
10985;SDS011;5546;48.714;8.738;2023-08-06T10:23:34;0.73;;;0.60;;
10985;SDS011;5546;48.714;8.738;2023-08-06T10:26:02;1.73;;;0.73;;
10985;SDS011;5546;48.714;8.738;2023-08-06T10:28:35;0.83;;;0.80;;
10985;SDS011;5546;48.714;8.738;2023-08-06T10:31:02;1.73;;;0.60;;
10985;SDS011;5546;48.714;8.738;2023-08-06T10:33:40;0.70;;;0.50;;
10985;SDS011;5546;48.714;8.738;2023-08-06T10:36:08;0.60;;;0.60;;
10985;SDS011;5546;48.714;8.738;2023-08-06T10:38:34;1.00;;;0.70;;
10985;SDS011;5546;48.714;8.738;2023-08-06T10:41:02;1.37;;;0.70;;
10985;SDS011;5546;48.714;8.738;2023-08-06T10:43:35;1.27;;;0.90;;
10985;SDS011;5546;48.714;8.738;2023-08-06T10:46:09;1.70;;;1.00;;
10985;SDS011;5546;48.714;8.738;2023-08-06T10:48:39;0.57;;;0.57;;
10985;SDS011;5546;48.714;8.738;2023-08-06T10:51:10;0.93;;;0.77;;
10985;SDS011;5546;48.714;8.738;2023-08-06T10:53:37;4.47;;;2.07;;
10985;SDS011;5546;48.714;8.738;2023-08-06T10:56:39;2.23;;;0.50;;
10985;SDS011;5546;48.714;8.738;2023-08-06T10:59:04;0.60;;;0.60;;
10985;SDS011;5546;48.714;8.738;2023-08-06T11:01:30;0.93;;;0.70;;
10985;SDS011;5546;48.714;8.738;2023-08-06T11:04:01;1.10;;;0.93;;
10985;SDS011;5546;48.714;8.738;2023-08-06T11:06:27;1.27;;;0.80;;
10985;SDS011;5546;48.714;8.738;2023-08-06T11:08:53;0.70;;;0.70;;
10985;SDS011;5546;48.714;8.738;2023-08-06T11:11:20;8.07;;;1.10;;
10985;SDS011;5546;48.714;8.738;2023-08-06T11:13:47;0.80;;;0.80;;
10985;SDS011;5546;48.714;8.738;2023-08-06T11:16:14;1.70;;;0.90;;
10985;SDS011;5546;48.714;8.738;2023-08-06T11:18:50;1.80;;;0.80;;
10985;SDS011;5546;48.714;8.738;2023-08-06T11:21:20;1.07;;;0.83;;
10985;SDS011;5546;48.714;8.738;2023-08-06T11:23:46;0.67;;;0.67;;
10985;SDS011;5546;48.714;8.738;2023-08-06T11:26:12;1.57;;;1.10;;
10985;SDS011;5546;48.714;8.738;2023-08-06T11:28:37;1.50;;;1.00;;
10985;SDS011;5546;48.714;8.738;2023-08-06T11:31:03;2.10;;;1.30;;
10985;SDS011;5546;48.714;8.738;2023-08-06T11:33:29;1.20;;;1.10;;
10985;SDS011;5546;48.714;8.738;2023-08-06T11:35:55;1.40;;;1.30;;
10985;SDS011;5546;48.714;8.738;2023-08-06T11:38:22;2.70;;;1.30;;
10985;SDS011;5546;48.714;8.738;2023-08-06T11:40:49;1.67;;;1.20;;
10985;SDS011;5546;48.714;8.738;2023-08-06T11:43:17;1.23;;;1.13;;
10985;SDS011;5546;48.714;8.738;2023-08-06T11:45:45;1.93;;;1.20;;
10985;SDS011;5546;48.714;8.738;2023-08-06T11:48:11;2.47;;;1.23;;
10985;SDS011;5546;48.714;8.738;2023-08-06T11:50:37;2.97;;;2.03;;
10985;SDS011;5546;48.714;8.738;2023-08-06T11:53:06;1.20;;;1.10;;
10985;SDS011;5546;48.714;8.738;2023-08-06T11:55:32;1.23;;;1.13;;
10985;SDS011;5546;48.714;8.738;2023-08-06T11:57:58;1.40;;;0.97;;
10985;SDS011;5546;48.714;8.738;2023-08-06T12:00:27;2.83;;;2.00;;
10985;SDS011;5546;48.714;8.738;2023-08-06T12:02:54;1.50;;;1.40;;
10985;SDS011;5546;48.714;8.738;2023-08-06T12:05:28;2.07;;;1.30;;
10985;SDS011;5546;48.714;8.738;2023-08-06T12:07:55;1.63;;;1.20;;
10985;SDS011;5546;48.714;8.738;2023-08-06T12:10:22;1.30;;;1.10;;
10985;SDS011;5546;48.714;8.738;2023-08-06T12:12:49;1.47;;;1.23;;
10985;SDS011;5546;48.714;8.738;2023-08-06T12:15:15;1.53;;;1.20;;
10985;SDS011;5546;48.714;8.738;2023-08-06T12:17:41;1.10;;;1.00;;
10985;SDS011;5546;48.714;8.738;2023-08-06T12:20:07;1.40;;;1.20;;
10985;SDS011;5546;48.714;8.738;2023-08-06T12:22:34;1.17;;;1.07;;
10985;SDS011;5546;48.714;8.738;2023-08-06T12:25:01;3.20;;;1.10;;
10985;SDS011;5546;48.714;8.738;2023-08-06T12:27:34;1.50;;;1.10;;
10985;SDS011;5546;48.714;8.738;2023-08-06T12:30:00;1.20;;;0.90;;
10985;SDS011;5546;48.714;8.738;2023-08-06T12:32:26;2.07;;;1.30;;
10985;SDS011;5546;48.714;8.738;2023-08-06T12:34:51;1.90;;;1.50;;
10985;SDS011;5546;48.714;8.738;2023-08-06T12:37:17;2.50;;;1.27;;
10985;SDS011;5546;48.714;8.738;2023-08-06T12:39:42;1.17;;;1.07;;
10985;SDS011;5546;48.714;8.738;2023-08-06T12:42:08;2.23;;;1.20;;
10985;SDS011;5546;48.714;8.738;2023-08-06T12:44:35;2.03;;;1.30;;
10985;SDS011;5546;48.714;8.738;2023-08-06T12:47:00;1.50;;;1.30;;
10985;SDS011;5546;48.714;8.738;2023-08-06T12:49:26;1.70;;;1.30;;
10985;SDS011;5546;48.714;8.738;2023-08-06T12:51:53;1.75;;;1.10;;
10985;SDS011;5546;48.714;8.738;2023-08-06T12:54:18;1.40;;;1.25;;
10985;SDS011;5546;48.714;8.738;2023-08-06T12:56:45;3.50;;;1.35;;
10985;SDS011;5546;48.714;8.738;2023-08-06T12:59:11;1.75;;;1.20;;
10985;SDS011;5546;48.714;8.738;2023-08-06T13:01:38;1.25;;;1.15;;
10985;SDS011;5546;48.714;8.738;2023-08-06T13:04:04;1.30;;;1.20;;
10985;SDS011;5546;48.714;8.738;2023-08-06T13:06:30;2.30;;;1.30;;
10985;SDS011;5546;48.714;8.738;2023-08-06T13:08:56;1.33;;;1.15;;
10985;SDS011;5546;48.714;8.738;2023-08-06T13:11:22;1.40;;;1.13;;
10985;SDS011;5546;48.714;8.738;2023-08-06T13:13:48;1.60;;;0.90;;
10985;SDS011;5546;48.714;8.738;2023-08-06T13:16:13;2.08;;;1.08;;
10985;SDS011;5546;48.714;8.738;2023-08-06T13:18:39;1.15;;;0.90;;
10985;SDS011;5546;48.714;8.738;2023-08-06T13:21:04;0.95;;;0.80;;
10985;SDS011;5546;48.714;8.738;2023-08-06T13:23:30;1.70;;;1.15;;
10985;SDS011;5546;48.714;8.738;2023-08-06T13:25:55;0.88;;;0.85;;
10985;SDS011;5546;48.714;8.738;2023-08-06T13:28:21;1.10;;;1.00;;
10985;SDS011;5546;48.714;8.738;2023-08-06T13:30:46;1.98;;;0.80;;
10985;SDS011;5546;48.714;8.738;2023-08-06T13:33:12;1.25;;;0.90;;
10985;SDS011;5546;48.714;8.738;2023-08-06T13:35:37;1.05;;;1.00;;
10985;SDS011;5546;48.714;8.738;2023-08-06T13:38:03;1.43;;;0.97;;
10985;SDS011;5546;48.714;8.738;2023-08-06T13:40:29;1.03;;;0.93;;
10985;SDS011;5546;48.714;8.738;2023-08-06T13:42:57;1.97;;;1.00;;
10985;SDS011;5546;48.714;8.738;2023-08-06T13:45:23;2.30;;;1.10;;
10985;SDS011;5546;48.714;8.738;2023-08-06T13:47:48;1.17;;;0.97;;
10985;SDS011;5546;48.714;8.738;2023-08-06T13:50:14;1.53;;;1.00;;
10985;SDS011;5546;48.714;8.738;2023-08-06T13:52:40;1.67;;;1.37;;
10985;SDS011;5546;48.714;8.738;2023-08-06T13:55:05;1.30;;;1.20;;
10985;SDS011;5546;48.714;8.738;2023-08-06T13:57:32;1.40;;;1.20;;
10985;SDS011;5546;48.714;8.738;2023-08-06T13:59:59;0.77;;;0.77;;
10985;SDS011;5546;48.714;8.738;2023-08-06T14:02:24;3.37;;;1.10;;
10985;SDS011;5546;48.714;8.738;2023-08-06T14:04:51;1.53;;;1.17;;
10985;SDS011;5546;48.714;8.738;2023-08-06T14:07:20;1.50;;;1.10;;
10985;SDS011;5546;48.714;8.738;2023-08-06T14:09:45;1.43;;;1.00;;
10985;SDS011;5546;48.714;8.738;2023-08-06T14:12:12;1.90;;;1.33;;
10985;SDS011;5546;48.714;8.738;2023-08-06T14:14:38;2.10;;;1.53;;
10985;SDS011;5546;48.714;8.738;2023-08-06T14:17:04;1.90;;;1.30;;
10985;SDS011;5546;48.714;8.738;2023-08-06T14:19:29;1.30;;;1.10;;
10985;SDS011;5546;48.714;8.738;2023-08-06T14:21:55;1.47;;;1.37;;
10985;SDS011;5546;48.714;8.738;2023-08-06T14:24:20;1.20;;;1.10;;
10985;SDS011;5546;48.714;8.738;2023-08-06T14:26:46;1.53;;;1.00;;
10985;SDS011;5546;48.714;8.738;2023-08-06T14:29:12;0.80;;;0.80;;
10985;SDS011;5546;48.714;8.738;2023-08-06T14:31:38;2.07;;;1.00;;
10985;SDS011;5546;48.714;8.738;2023-08-06T14:34:04;0.83;;;0.83;;
10985;SDS011;5546;48.714;8.738;2023-08-06T14:36:30;1.27;;;1.17;;
10985;SDS011;5546;48.714;8.738;2023-08-06T14:38:55;0.70;;;0.70;;
10985;SDS011;5546;48.714;8.738;2023-08-06T14:41:21;3.03;;;1.30;;
10985;SDS011;5546;48.714;8.738;2023-08-06T14:43:46;1.80;;;1.20;;
10985;SDS011;5546;48.714;8.738;2023-08-06T14:46:12;1.07;;;0.97;;
10985;SDS011;5546;48.714;8.738;2023-08-06T14:48:38;2.07;;;1.30;;
10985;SDS011;5546;48.714;8.738;2023-08-06T14:51:04;2.60;;;1.13;;
10985;SDS011;5546;48.714;8.738;2023-08-06T14:53:29;1.57;;;1.20;;
10985;SDS011;5546;48.714;8.738;2023-08-06T14:55:55;1.50;;;1.13;;
10985;SDS011;5546;48.714;8.738;2023-08-06T14:58:20;1.73;;;1.20;;
10985;SDS011;5546;48.714;8.738;2023-08-06T15:00:46;1.27;;;1.00;;
10985;SDS011;5546;48.714;8.738;2023-08-06T15:03:11;1.20;;;1.10;;
10985;SDS011;5546;48.714;8.738;2023-08-06T15:05:37;1.57;;;1.10;;
10985;SDS011;5546;48.714;8.738;2023-08-06T15:08:03;3.30;;;1.20;;